createdAt,value
2022-10-08T00:00:50.051Z,64.22
2022-10-08T00:03:57.631Z,64.35
2022-10-08T00:07:03.901Z,64.49
2022-10-08T00:10:09.242Z,64.67
2022-10-08T00:13:15.156Z,64.78
2022-10-08T00:16:23.390Z,64.97
2022-10-08T00:19:29.634Z,65.23
2022-10-08T00:22:34.205Z,64.88
2022-10-08T00:25:44.443Z,65.35
2022-10-08T00:28:50.965Z,65.20
2022-10-08T00:31:57.248Z,65.18
2022-10-08T00:35:03.938Z,65.36
2022-10-08T00:38:10.312Z,65.08
2022-10-08T00:41:25.930Z,64.82
2022-10-08T00:44:54.389Z,64.61
2022-10-08T00:48:01.237Z,64.94
2022-10-08T00:51:08.225Z,64.97
2022-10-08T00:54:15.699Z,64.84
2022-10-08T00:57:23.565Z,65.07
2022-10-08T01:00:30.477Z,65.52
2022-10-08T01:03:36.571Z,65.82
2022-10-08T01:06:51.274Z,65.95
2022-10-08T01:10:07.175Z,66.07
2022-10-08T01:13:24.659Z,65.77
2022-10-08T01:16:38.778Z,65.33
2022-10-08T01:20:07.429Z,65.04
2022-10-08T01:23:31.015Z,65.15
2022-10-08T01:26:54.098Z,64.81
2022-10-08T01:30:05.961Z,64.90
2022-10-08T01:33:19.111Z,65.45
2022-10-08T01:36:27.000Z,65.39
2022-10-08T01:39:37.968Z,64.89
2022-10-08T01:42:46.342Z,64.73
2022-10-08T01:45:58.983Z,64.56
2022-10-08T01:49:10.432Z,65.13
2022-10-08T01:52:22.704Z,65.37
2022-10-08T01:55:33.123Z,65.09
2022-10-08T01:58:47.582Z,65.38
2022-10-08T02:02:00.149Z,65.17
2022-10-08T02:05:07.458Z,64.95
2022-10-08T02:08:14.506Z,64.81
2022-10-08T02:11:20.949Z,64.52
2022-10-08T02:14:29.084Z,64.57
2022-10-08T02:17:40.819Z,64.45
2022-10-08T02:20:54.360Z,64.90
2022-10-08T02:24:09.913Z,65.41
2022-10-08T02:27:18.009Z,65.56
2022-10-08T02:30:25.435Z,64.98
2022-10-08T02:33:37.732Z,64.65
2022-10-08T02:36:47.376Z,64.58
2022-10-08T02:39:59.719Z,64.27
2022-10-08T02:43:13.124Z,64.17
2022-10-08T02:46:21.872Z,64.11
2022-10-08T02:49:31.689Z,64.28
2022-10-08T02:52:41.988Z,64.45
2022-10-08T02:55:58.026Z,64.35
2022-10-08T02:59:02.948Z,64.55
2022-10-08T03:02:10.832Z,65.43
2022-10-08T03:05:20.422Z,65.58
2022-10-08T03:08:27.918Z,65.98
2022-10-08T03:11:35.398Z,65.87
2022-10-08T03:14:45.043Z,66.40
2022-10-08T03:17:51.822Z,66.30
2022-10-08T03:20:58.395Z,66.42
2022-10-08T03:24:04.751Z,66.04
2022-10-08T03:27:09.392Z,66.53
2022-10-08T03:30:16.534Z,66.05
2022-10-08T03:33:22.592Z,65.89
2022-10-08T03:36:30.033Z,65.62
2022-10-08T03:39:36.219Z,65.79
2022-10-08T03:42:42.329Z,66.67
2022-10-08T03:45:54.496Z,66.78
2022-10-08T03:49:00.693Z,66.79
2022-10-08T03:52:07.024Z,66.96
2022-10-08T03:55:11.408Z,67.18
2022-10-08T03:58:17.791Z,67.44
2022-10-08T04:01:22.498Z,67.42
2022-10-08T04:04:28.983Z,67.49
2022-10-08T04:07:33.532Z,67.49
2022-10-08T04:10:42.123Z,67.65
2022-10-08T04:13:48.508Z,68.41
2022-10-08T04:16:54.578Z,69.61
2022-10-08T04:20:00.826Z,70.12
2022-10-08T04:23:06.967Z,70.22
2022-10-08T04:26:14.522Z,68.80
2022-10-08T04:29:20.757Z,68.78
2022-10-08T04:32:25.313Z,68.51
2022-10-08T04:35:31.412Z,68.25
2022-10-08T04:38:37.742Z,67.73
2022-10-08T04:41:42.238Z,67.67
2022-10-08T04:44:48.215Z,67.41
2022-10-08T04:47:54.340Z,66.41
2022-10-08T04:51:02.077Z,65.51
2022-10-08T04:54:08.286Z,65.50
2022-10-08T04:57:14.510Z,65.29
2022-10-08T05:00:19.563Z,65.35
2022-10-08T05:03:25.767Z,66.00
2022-10-08T05:06:33.265Z,65.97
2022-10-08T05:09:39.411Z,66.01
2022-10-08T05:12:45.903Z,65.95
2022-10-08T05:15:52.297Z,65.89
2022-10-08T05:18:59.088Z,65.92
2022-10-08T05:22:05.207Z,65.72
2022-10-08T05:25:12.452Z,65.79
2022-10-08T05:28:18.553Z,66.14
2022-10-08T05:31:25.701Z,66.29
2022-10-08T05:34:31.911Z,66.24
2022-10-08T05:37:37.952Z,66.55
2022-10-08T05:40:44.035Z,66.95
2022-10-08T05:43:50.951Z,67.09
2022-10-08T05:46:57.183Z,67.11
2022-10-08T05:50:01.775Z,66.97
2022-10-08T05:53:09.359Z,67.25
2022-10-08T05:56:16.939Z,67.17
2022-10-08T05:59:24.445Z,67.23
2022-10-08T06:02:30.633Z,67.45
2022-10-08T06:05:36.814Z,67.49
2022-10-08T06:08:42.869Z,67.99
2022-10-08T06:11:50.390Z,68.17
2022-10-08T06:14:56.536Z,68.07
2022-10-08T06:18:02.815Z,67.95
2022-10-08T06:21:10.870Z,68.31
2022-10-08T06:24:17.121Z,68.24
2022-10-08T06:27:23.394Z,69.17
2022-10-08T06:30:27.974Z,69.71
2022-10-08T06:33:34.588Z,70.53
2022-10-08T06:36:40.965Z,71.09
2022-10-08T06:39:48.476Z,72.07
2022-10-08T06:42:54.814Z,73.08
2022-10-08T06:46:04.879Z,73.30
2022-10-08T06:49:12.497Z,73.82
2022-10-08T06:52:18.631Z,74.20
2022-10-08T06:55:24.893Z,74.58
2022-10-08T06:58:31.682Z,75.51
2022-10-08T07:01:38.074Z,75.84
2022-10-08T07:04:44.279Z,76.08
2022-10-08T07:07:50.354Z,76.34
2022-10-08T07:10:56.505Z,76.47
2022-10-08T07:14:02.823Z,76.78
2022-10-08T07:17:07.332Z,77.16
2022-10-08T07:20:13.473Z,77.32
2022-10-08T07:23:19.523Z,77.60
2022-10-08T07:26:26.986Z,77.71
2022-10-08T07:29:33.088Z,78.22
2022-10-08T07:32:39.130Z,77.73
2022-10-08T07:35:45.444Z,78.04
2022-10-08T07:38:54.102Z,77.82
2022-10-08T07:42:00.329Z,77.87
2022-10-08T07:45:05.079Z,77.53
2022-10-08T07:48:11.168Z,77.80
2022-10-08T07:51:19.630Z,77.75
2022-10-08T07:54:25.755Z,77.50
2022-10-08T07:57:32.053Z,77.33
2022-10-08T08:00:36.623Z,76.97
2022-10-08T08:03:42.951Z,76.74
2022-10-08T08:06:49.569Z,76.02
2022-10-08T08:09:55.736Z,76.15
2022-10-08T08:13:00.343Z,75.81
2022-10-08T08:16:08.512Z,75.29
2022-10-08T08:19:14.950Z,74.64
2022-10-08T08:22:21.203Z,74.02
2022-10-08T08:25:25.700Z,73.38
2022-10-08T08:28:32.269Z,72.90
2022-10-08T08:31:40.425Z,71.83
2022-10-08T08:34:47.127Z,71.09
2022-10-08T08:37:53.184Z,70.42
2022-10-08T08:41:11.838Z,70.41
2022-10-08T08:44:25.520Z,69.89
2022-10-08T08:47:36.736Z,68.96
2022-10-08T08:50:48.629Z,68.19
2022-10-08T08:53:55.285Z,68.58
2022-10-08T08:57:24.980Z,68.34
2022-10-08T09:00:36.415Z,68.12
2022-10-08T09:03:45.527Z,68.48
2022-10-08T09:06:53.611Z,68.00
2022-10-08T09:10:05.610Z,67.39
2022-10-08T09:13:15.678Z,67.71
2022-10-08T09:16:21.968Z,67.11
2022-10-08T09:19:28.087Z,66.53
2022-10-08T09:22:33.554Z,66.75
2022-10-08T09:25:40.216Z,66.23
2022-10-08T09:28:48.245Z,65.09
2022-10-08T09:31:54.592Z,64.61
2022-10-08T09:35:08.035Z,63.16
2022-10-08T09:38:26.368Z,62.64
2022-10-08T09:41:32.587Z,62.05
2022-10-08T09:44:45.108Z,61.80
2022-10-08T09:48:17.827Z,61.83
2022-10-08T09:51:24.727Z,61.03
2022-10-08T09:54:35.823Z,59.79
2022-10-08T09:57:47.200Z,59.04
2022-10-08T10:01:03.876Z,58.92
2022-10-08T10:04:21.629Z,59.29
2022-10-08T10:07:39.992Z,61.05
2022-10-08T10:10:48.804Z,61.42
2022-10-08T10:13:56.403Z,60.82
2022-10-08T10:17:08.483Z,60.41
2022-10-08T10:20:19.035Z,58.33
2022-10-08T10:23:29.648Z,56.69
2022-10-08T10:26:40.623Z,58.85
2022-10-08T10:29:59.279Z,58.73
2022-10-08T10:33:10.715Z,57.39
2022-10-08T10:36:20.307Z,58.06
2022-10-08T10:39:37.097Z,57.66
2022-10-08T10:42:50.742Z,58.84
2022-10-08T10:46:01.889Z,58.33
2022-10-08T10:49:15.582Z,57.97
2022-10-08T10:52:48.008Z,60.34
2022-10-08T10:56:05.297Z,57.51
2022-10-08T10:59:29.503Z,56.27
2022-10-08T11:02:44.383Z,55.16
2022-10-08T11:05:57.786Z,57.63
2022-10-08T11:09:10.535Z,55.73
2022-10-08T11:12:35.095Z,55.65
2022-10-08T11:15:47.901Z,56.27
2022-10-08T11:18:57.103Z,58.39
2022-10-08T11:22:09.528Z,57.41
2022-10-08T11:25:25.076Z,58.37
2022-10-08T11:28:44.422Z,58.10
2022-10-08T11:31:52.244Z,57.03
2022-10-08T11:35:05.227Z,57.67
2022-10-08T11:38:19.516Z,57.98
2022-10-08T11:41:33.567Z,58.64
2022-10-08T11:44:43.074Z,56.71
2022-10-08T11:47:54.603Z,56.51
2022-10-08T11:51:33.863Z,57.61
2022-10-08T11:54:42.032Z,55.87
2022-10-08T11:58:08.174Z,56.13
2022-10-08T12:01:15.853Z,56.45
2022-10-08T12:04:24.574Z,55.49
2022-10-08T12:07:37.468Z,55.72
2022-10-08T12:10:43.604Z,55.35
2022-10-08T12:14:25.973Z,54.13
2022-10-08T12:17:55.888Z,52.68
2022-10-08T12:21:41.789Z,53.66
2022-10-08T12:24:58.715Z,54.84
2022-10-08T12:28:50.680Z,51.88
2022-10-08T12:32:03.538Z,53.55
2022-10-08T12:35:25.088Z,52.96
2022-10-08T12:38:40.893Z,52.93
2022-10-08T12:41:57.324Z,51.99
2022-10-08T12:45:09.998Z,52.16
2022-10-08T12:48:29.580Z,53.15
2022-10-08T12:51:45.839Z,52.57
2022-10-08T12:54:53.786Z,53.68
2022-10-08T12:58:00.050Z,52.98
2022-10-08T13:01:07.525Z,54.12
2022-10-08T13:04:19.999Z,54.69
2022-10-08T13:07:31.152Z,53.70
2022-10-08T13:10:37.473Z,54.14
2022-10-08T13:13:50.479Z,54.23
2022-10-08T13:16:56.860Z,54.69
2022-10-08T13:20:19.374Z,53.77
2022-10-08T13:23:34.230Z,53.82
2022-10-08T13:26:45.013Z,55.37
2022-10-08T13:29:51.176Z,53.35
2022-10-08T13:33:04.988Z,54.01
2022-10-08T13:36:24.481Z,53.38
2022-10-08T13:39:34.243Z,53.86
2022-10-08T13:42:45.002Z,53.70
2022-10-08T13:45:51.212Z,54.39
2022-10-08T13:48:57.304Z,54.14
2022-10-08T13:52:03.944Z,53.73
2022-10-08T13:55:19.293Z,53.34
2022-10-08T13:58:25.743Z,53.52
2022-10-08T14:01:31.908Z,53.04
2022-10-08T14:04:38.119Z,53.41
2022-10-08T14:07:46.216Z,53.60
2022-10-08T14:10:57.672Z,53.46
2022-10-08T14:14:04.122Z,53.94
2022-10-08T14:17:10.203Z,54.12
2022-10-08T14:20:16.530Z,54.46
2022-10-08T14:23:22.699Z,53.98
2022-10-08T14:26:30.574Z,54.24
2022-10-08T14:29:36.704Z,54.85
2022-10-08T14:32:43.667Z,55.21
2022-10-08T14:35:53.684Z,55.27
2022-10-08T14:38:59.812Z,55.41
2022-10-08T14:42:06.138Z,55.85
2022-10-08T14:45:13.492Z,56.28
2022-10-08T14:48:19.690Z,56.79
2022-10-08T14:51:25.763Z,56.86
2022-10-08T14:54:31.772Z,56.75
2022-10-08T14:57:37.877Z,57.64
2022-10-08T15:00:44.025Z,58.97
2022-10-08T15:03:50.188Z,58.15
2022-10-08T15:06:56.449Z,58.23
2022-10-08T15:10:02.567Z,58.96
2022-10-08T15:13:08.931Z,60.14
2022-10-08T15:16:15.877Z,59.89
2022-10-08T15:19:24.008Z,60.04
2022-10-08T15:22:30.460Z,60.93
2022-10-08T15:25:36.630Z,64.86
2022-10-08T15:28:43.642Z,65.28
2022-10-08T15:31:52.542Z,64.21
2022-10-08T15:34:58.654Z,62.33
2022-10-08T15:38:04.787Z,61.04
2022-10-08T15:41:10.939Z,61.08
2022-10-08T15:44:19.939Z,59.42
2022-10-08T15:47:26.087Z,59.72
2022-10-08T15:50:32.204Z,59.94
2022-10-08T15:53:39.615Z,60.47
2022-10-08T15:56:45.485Z,61.24
2022-10-08T15:59:50.019Z,63.45
2022-10-08T16:02:58.338Z,64.40
2022-10-08T16:06:04.747Z,63.24
2022-10-08T16:09:10.737Z,62.83
2022-10-08T16:12:15.370Z,62.42
2022-10-08T16:15:21.699Z,62.06
2022-10-08T16:18:27.763Z,61.72
2022-10-08T16:21:35.282Z,61.94
2022-10-08T16:24:41.408Z,61.98
2022-10-08T16:27:47.647Z,62.12
2022-10-08T16:30:53.993Z,61.86
2022-10-08T16:34:01.819Z,61.74
2022-10-08T16:37:07.996Z,61.54
2022-10-08T16:40:14.623Z,61.47
2022-10-08T16:43:20.876Z,61.50
2022-10-08T16:46:28.790Z,61.60
2022-10-08T16:49:35.032Z,61.58
2022-10-08T16:52:41.118Z,61.52
2022-10-08T16:55:47.159Z,61.90
2022-10-08T16:58:53.882Z,61.94
2022-10-08T17:02:01.313Z,62.02
2022-10-08T17:05:08.733Z,62.00
2022-10-08T17:08:14.611Z,62.05
2022-10-08T17:11:21.870Z,62.04
2022-10-08T17:14:28.196Z,62.09
2022-10-08T17:17:34.103Z,62.45
2022-10-08T17:20:41.355Z,62.67
2022-10-08T17:23:48.624Z,62.51
2022-10-08T17:26:54.881Z,62.59
2022-10-08T17:30:01.172Z,62.96
2022-10-08T17:33:07.341Z,62.84
2022-10-08T17:36:15.971Z,63.49
2022-10-08T17:39:22.360Z,63.09
2022-10-08T17:42:28.590Z,63.18
2022-10-08T17:45:34.698Z,63.22
2022-10-08T17:48:40.851Z,63.00
2022-10-08T17:51:47.501Z,63.34
2022-10-08T17:54:53.546Z,63.31
2022-10-08T17:57:58.083Z,63.61
2022-10-08T18:01:10.299Z,63.95
2022-10-08T18:04:17.871Z,63.41
2022-10-08T18:07:24.007Z,63.30
2022-10-08T18:10:30.042Z,63.40
2022-10-08T18:13:34.975Z,63.90
2022-10-08T18:16:45.562Z,63.98
2022-10-08T18:19:54.200Z,63.67
2022-10-08T18:23:00.119Z,63.58
2022-10-08T18:26:18.728Z,63.93
2022-10-08T18:29:25.068Z,63.76
2022-10-08T18:32:30.915Z,64.08
2022-10-08T18:35:37.105Z,64.15
2022-10-08T18:38:44.422Z,64.42
2022-10-08T18:41:52.059Z,65.23
2022-10-08T18:44:58.363Z,65.46
2022-10-08T18:48:04.519Z,64.87
2022-10-08T18:51:13.049Z,64.63
2022-10-08T18:54:19.408Z,64.76
2022-10-08T18:57:25.628Z,64.95
2022-10-08T19:00:31.542Z,65.44
2022-10-08T19:03:37.819Z,66.10
2022-10-08T19:06:45.182Z,66.57
2022-10-08T19:09:51.261Z,66.15
2022-10-08T19:12:55.890Z,66.01
2022-10-08T19:16:05.797Z,65.93
2022-10-08T19:19:16.782Z,65.67
2022-10-08T19:22:22.992Z,65.97
2022-10-08T19:25:31.889Z,65.78
2022-10-08T19:28:39.476Z,66.36
2022-10-08T19:31:47.852Z,65.94
2022-10-08T19:34:53.984Z,66.39
2022-10-08T19:37:58.512Z,65.89
2022-10-08T19:41:07.554Z,65.72
2022-10-08T19:44:14.540Z,66.22
2022-10-08T19:47:21.000Z,66.33
2022-10-08T19:50:27.295Z,65.83
2022-10-08T19:53:34.160Z,65.52
2022-10-08T19:56:40.594Z,65.45
2022-10-08T19:59:46.680Z,65.85
2022-10-08T20:02:52.839Z,65.23
2022-10-08T20:05:57.473Z,65.12
2022-10-08T20:09:05.643Z,65.18
2022-10-08T20:12:11.727Z,64.79
2022-10-08T20:15:16.476Z,64.99
2022-10-08T20:18:22.618Z,65.33
2022-10-08T20:21:27.385Z,65.23
2022-10-08T20:24:33.635Z,65.32
2022-10-08T20:27:39.785Z,65.31
2022-10-08T20:30:44.361Z,65.28
2022-10-08T20:33:55.885Z,65.34
2022-10-08T20:37:02.565Z,65.10
2022-10-08T20:40:09.687Z,65.05
2022-10-08T20:43:15.816Z,65.20
2022-10-08T20:46:20.738Z,65.49
2022-10-08T20:49:26.899Z,65.84
2022-10-08T20:52:31.363Z,65.63
2022-10-08T20:55:39.262Z,65.76
2022-10-08T20:58:45.568Z,65.59
2022-10-08T21:01:52.628Z,65.66
2022-10-08T21:04:58.740Z,65.92
2022-10-08T21:08:04.811Z,66.11
2022-10-08T21:11:16.234Z,66.18
2022-10-08T21:14:24.174Z,66.58
2022-10-08T21:17:30.322Z,66.64
2022-10-08T21:20:38.471Z,66.75
2022-10-08T21:23:44.762Z,66.88
2022-10-08T21:26:51.045Z,66.98
2022-10-08T21:29:57.189Z,67.46
2022-10-08T21:33:01.733Z,67.31
2022-10-08T21:36:09.640Z,67.21
2022-10-08T21:39:18.721Z,67.22
2022-10-08T21:42:24.694Z,67.79
2022-10-08T21:45:30.808Z,67.77
2022-10-08T21:48:35.420Z,67.97
2022-10-08T21:51:41.755Z,68.28
2022-10-08T21:54:47.935Z,67.68
2022-10-08T21:57:52.379Z,67.64
2022-10-08T22:00:59.050Z,67.97
2022-10-08T22:04:06.697Z,68.08
2022-10-08T22:07:12.788Z,68.38
2022-10-08T22:10:17.492Z,68.25
2022-10-08T22:13:23.950Z,68.20
2022-10-08T22:16:30.049Z,68.17
2022-10-08T22:19:35.643Z,68.30
2022-10-08T22:22:41.751Z,68.47
2022-10-08T22:25:52.984Z,68.49
2022-10-08T22:28:59.954Z,68.85
2022-10-08T22:32:06.561Z,69.10
2022-10-08T22:35:13.594Z,70.01
2022-10-08T22:38:19.668Z,70.41
2022-10-08T22:41:28.233Z,70.87
2022-10-08T22:44:34.393Z,71.20
2022-10-08T22:47:38.986Z,71.29
2022-10-08T22:50:45.211Z,71.42
2022-10-08T22:53:52.244Z,71.12
2022-10-08T22:56:58.458Z,70.80
2022-10-08T23:00:05.127Z,70.81
2022-10-08T23:03:11.293Z,70.77
2022-10-08T23:06:19.670Z,70.66
2022-10-08T23:09:25.792Z,70.34
2022-10-08T23:12:30.424Z,70.45
2022-10-08T23:15:36.651Z,70.45
2022-10-08T23:18:44.924Z,70.23
2022-10-08T23:21:50.940Z,70.06
2022-10-08T23:24:57.014Z,69.74
2022-10-08T23:28:03.148Z,69.65
2022-10-08T23:31:11.448Z,69.56
2022-10-08T23:34:17.547Z,69.48
2022-10-08T23:37:22.019Z,69.53
2022-10-08T23:40:28.075Z,69.38
2022-10-08T23:43:35.388Z,69.26
2022-10-08T23:46:41.837Z,69.09
2022-10-08T23:49:47.998Z,68.70
2022-10-08T23:52:52.547Z,68.56
2022-10-08T23:55:58.730Z,68.48
2022-10-08T23:59:04.834Z,68.09
